Time;durP1;ratioP1;P1;durP2;ratioP2;P2;SDS_P1;SDS_P2;PMS_P1;PMS_P2;Temp;Humidity;BMP_temperature;BMP_pressure;BME280_temperature;BME280_humidity;BME280_pressure;Samples;Min_cycle;Max_cycle;Signal;HPM_P1;HPM_P2
2022/03/16 00:00:21;;;;;;;;;;;10.00;99.90;;;;;;4868266;29;19936;-87
2022/03/16 00:02:49;;;;;;;;;;;9.90;99.90;;;;;;4871311;29;19916;-87
2022/03/16 00:05:21;;;;;;;;;;;9.90;99.90;;;;;;4867345;29;19932;-88
2022/03/16 00:07:49;;;;;;;;;;;8.40;99.90;;;;;;4861268;29;19939;-88
2022/03/16 00:10:18;;;;;;;;;;;10.20;99.90;;;;;;4878431;29;19936;-88
2022/03/16 00:12:46;;;;;;;;;;;9.80;99.90;;;;;;4861473;29;19939;-88
2022/03/16 00:15:14;;;;;;;;;;;9.90;99.90;;;;;;4860661;29;19939;-87
2022/03/16 00:17:42;;;;;;;;;;;9.80;99.90;;;;;;4861994;29;19928;-87
2022/03/16 00:20:11;;;;;;;;;;;9.90;99.90;;;;;;4860375;29;20010;-88
2022/03/16 00:22:39;;;;;;;;;;;9.70;99.90;;;;;;4862605;29;19934;-87
2022/03/16 00:25:07;;;;;;;;;;;9.70;99.90;;;;;;4861537;29;19936;-86
2022/03/16 00:27:35;;;;;;;;;;;9.80;99.90;;;;;;4876193;29;19939;-88
2022/03/16 00:30:04;;;;;;;;;;;9.30;99.90;;;;;;4846147;29;19955;-88
2022/03/16 00:32:33;;;;;;;;;;;9.60;99.90;;;;;;4861866;29;19936;-87
2022/03/16 00:35:06;;;;;;;;;;;9.60;99.90;;;;;;4873350;29;19929;-87
2022/03/16 00:37:38;;;;;;;;;;;9.60;99.90;;;;;;4861688;29;19929;-88
2022/03/16 00:40:06;;;;;;;;;;;9.50;99.90;;;;;;4864301;29;19932;-88
2022/03/16 00:42:33;;;;;;;;;;;9.60;99.90;;;;;;4873220;29;19936;-90
2022/03/16 00:45:03;;;;;;;;;;;9.50;99.90;;;;;;4875937;29;19932;-90
2022/03/16 00:47:30;;;;;;;;;;;9.50;99.90;;;;;;4866286;29;20424;-88
2022/03/16 00:49:58;;;;;;;;;;;9.50;99.90;;;;;;4863310;29;19935;-88
2022/03/16 00:52:25;;;;;;;;;;;9.50;99.90;;;;;;4861028;29;19932;-88
2022/03/16 00:54:53;;;;;;;;;;;9.40;99.90;;;;;;4860853;29;19947;-89
2022/03/16 00:57:20;;;;;;;;;;;9.40;99.90;;;;;;4858304;29;19932;-88
2022/03/16 00:59:47;;;;;;;;;;;9.40;99.90;;;;;;4858220;29;19936;-88
2022/03/16 01:02:17;;;;;;;;;;;9.40;99.90;;;;;;4877042;29;19932;-88
2022/03/16 01:04:44;;;;;;;;;;;9.40;99.90;;;;;;4858182;29;19943;-89
2022/03/16 01:07:12;;;;;;;;;;;9.60;99.90;;;;;;4848551;29;19935;-88
2022/03/16 01:09:40;;;;;;;;;;;9.40;99.90;;;;;;4861109;29;19939;-87
2022/03/16 01:12:08;;;;;;;;;;;9.40;99.90;;;;;;4862141;29;19942;-87
2022/03/16 01:14:36;;;;;;;;;;;9.30;99.90;;;;;;4878702;29;19943;-87
2022/03/16 01:17:03;;;;;;;;;;;9.30;99.90;;;;;;4877866;29;19932;-89
2022/03/16 01:19:34;;;;;;;;;;;9.30;99.90;;;;;;4877134;29;19935;-89
2022/03/16 01:22:03;;;;;;;;;;;9.60;99.90;;;;;;4832684;29;20423;-88
2022/03/16 01:24:32;;;;;;;;;;;9.30;99.90;;;;;;4879798;29;19939;-87
2022/03/16 01:27:00;;;;;;;;;;;9.30;99.90;;;;;;4847400;29;20305;-87
2022/03/16 01:29:27;;;;;;;;;;;9.20;99.90;;;;;;4873978;29;19943;-88
2022/03/16 01:31:55;;;;;;;;;;;9.20;99.90;;;;;;4877274;29;19939;-88
2022/03/16 01:34:24;;;;;;;;;;;9.30;99.90;;;;;;4875998;29;19932;-88
2022/03/16 01:36:52;;;;;;;;;;;9.30;99.90;;;;;;4871631;29;19928;-87
2022/03/16 01:39:20;;;;;;;;;;;9.40;99.90;;;;;;4878934;29;19949;-87
2022/03/16 01:41:50;;;;;;;;;;;9.40;99.90;;;;;;4860956;29;19936;-87
2022/03/16 01:44:17;;;;;;;;;;;9.40;99.90;;;;;;4864789;29;19951;-87
2022/03/16 01:46:45;;;;;;;;;;;9.40;99.90;;;;;;4864676;29;19936;-86
2022/03/16 01:49:13;;;;;;;;;;;9.30;99.90;;;;;;4866641;29;20856;-88
2022/03/16 01:51:42;;;;;;;;;;;9.50;99.90;;;;;;4866903;29;19928;-85
2022/03/16 01:54:09;;;;;;;;;;;9.50;99.90;;;;;;4861942;29;20628;-88
2022/03/16 01:56:37;;;;;;;;;;;9.60;99.90;;;;;;4865053;29;19932;-87
2022/03/16 01:59:04;;;;;;;;;;;9.60;99.90;;;;;;4865648;29;19942;-86
2022/03/16 02:01:32;;;;;;;;;;;9.50;99.90;;;;;;4877981;29;20606;-87
2022/03/16 02:04:00;;;;;;;;;;;9.40;99.90;;;;;;4882263;29;19939;-87
2022/03/16 02:06:28;;;;;;;;;;;9.60;99.90;;;;;;4864847;29;20281;-87
2022/03/16 02:08:55;;;;;;;;;;;9.60;99.90;;;;;;4862622;29;19939;-86
2022/03/16 02:11:23;;;;;;;;;;;9.60;99.90;;;;;;4864084;29;19935;-87
2022/03/16 02:13:51;;;;;;;;;;;9.60;99.90;;;;;;4863804;29;19928;-87
2022/03/16 02:16:19;;;;;;;;;;;9.60;99.90;;;;;;4862639;29;19932;-87
2022/03/16 02:18:49;;;;;;;;;;;9.60;99.90;;;;;;4860499;29;19928;-86
2022/03/16 02:21:16;;;;;;;;;;;9.60;99.90;;;;;;4860614;29;20398;-88
2022/03/16 02:23:44;;;;;;;;;;;9.60;99.90;;;;;;4862378;29;19949;-89
2022/03/16 02:26:12;;;;;;;;;;;9.60;99.90;;;;;;4861745;29;20296;-88
2022/03/16 02:28:40;;;;;;;;;;;9.60;99.90;;;;;;4843813;29;19928;-88
2022/03/16 02:31:07;;;;;;;;;;;9.70;99.90;;;;;;4861342;29;20419;-88
2022/03/16 02:33:35;;;;;;;;;;;9.60;99.90;;;;;;4862435;29;19928;-88
2022/03/16 02:36:05;;;;;;;;;;;9.60;99.90;;;;;;4862823;29;20427;-87
2022/03/16 02:38:35;;;;;;;;;;;9.70;99.90;;;;;;4860292;29;20589;-88
2022/03/16 02:41:03;;;;;;;;;;;9.70;99.90;;;;;;4846738;29;19947;-88
2022/03/16 02:43:32;;;;;;;;;;;10.00;99.90;;;;;;4878825;29;19936;-86
2022/03/16 02:46:01;;;;;;;;;;;9.70;99.90;;;;;;4853754;29;19936;-87
2022/03/16 02:48:29;;;;;;;;;;;10.00;99.90;;;;;;4863656;29;19944;-86
2022/03/16 02:50:57;;;;;;;;;;;9.70;99.90;;;;;;4864012;29;19928;-87
2022/03/16 02:53:25;;;;;;;;;;;9.70;99.90;;;;;;4868749;29;19939;-87
2022/03/16 02:55:52;;;;;;;;;;;9.60;99.90;;;;;;4868050;29;19944;-90
2022/03/16 02:58:21;;;;;;;;;;;9.50;99.90;;;;;;4866059;29;19959;-87
2022/03/16 03:00:49;;;;;;;;;;;9.70;99.90;;;;;;4867291;29;20396;-88
2022/03/16 03:03:17;;;;;;;;;;;9.70;99.90;;;;;;4852120;29;20060;-88
2022/03/16 03:05:44;;;;;;;;;;;9.70;99.90;;;;;;4879960;29;19936;-89
2022/03/16 03:08:13;;;;;;;;;;;9.80;99.90;;;;;;4869288;29;19935;-89
2022/03/16 03:10:40;;;;;;;;;;;9.80;99.90;;;;;;4879821;29;19941;-90
2022/03/16 03:13:08;;;;;;;;;;;9.80;99.90;;;;;;4879959;29;19931;-90
2022/03/16 03:15:35;;;;;;;;;;;9.80;99.90;;;;;;4868433;29;19940;-88
2022/03/16 03:18:03;;;;;;;;;;;9.90;99.90;;;;;;4865029;29;19939;-88
2022/03/16 03:20:30;;;;;;;;;;;9.90;99.90;;;;;;4863519;29;20545;-90
2022/03/16 03:22:58;;;;;;;;;;;9.90;99.90;;;;;;4866680;29;19927;-88
2022/03/16 03:25:27;;;;;;;;;;;9.90;99.90;;;;;;4848585;29;19928;-89
2022/03/16 03:27:58;;;;;;;;;;;10.00;99.90;;;;;;4883340;29;19935;-89
2022/03/16 03:30:25;;;;;;;;;;;9.90;99.90;;;;;;4868601;29;19928;-88
2022/03/16 03:32:53;;;;;;;;;;;10.00;99.90;;;;;;4882730;29;19947;-88
2022/03/16 03:35:20;;;;;;;;;;;10.00;99.90;;;;;;4852074;29;19932;-88
2022/03/16 03:37:51;;;;;;;;;;;10.00;99.90;;;;;;4863668;29;19934;-89
2022/03/16 03:40:18;;;;;;;;;;;10.00;99.90;;;;;;4881737;29;19928;-89
2022/03/16 03:42:45;;;;;;;;;;;10.00;99.90;;;;;;4865007;29;20238;-88
2022/03/16 03:45:13;;;;;;;;;;;10.10;99.90;;;;;;4881894;29;20593;-89
2022/03/16 03:47:41;;;;;;;;;;;10.00;99.90;;;;;;4880442;29;19932;-88
2022/03/16 03:50:11;;;;;;;;;;;10.10;99.90;;;;;;4879084;29;19935;-88
2022/03/16 03:52:39;;;;;;;;;;;10.10;99.90;;;;;;4880297;29;19928;-89
2022/03/16 03:55:06;;;;;;;;;;;10.10;99.90;;;;;;4880077;29;20311;-88
2022/03/16 03:57:34;;;;;;;;;;;10.10;99.90;;;;;;4879792;29;19927;-88
2022/03/16 04:00:04;;;;;;;;;;;9.90;99.90;;;;;;4832849;29;20316;-89
2022/03/16 04:02:38;;;;;;;;;;;10.20;99.90;;;;;;4866225;29;19935;-89
2022/03/16 04:05:05;;;;;;;;;;;9.80;99.90;;;;;;4880485;29;19935;-88
2022/03/16 04:07:35;;;;;;;;;;;10.20;99.90;;;;;;4863368;29;19936;-89
2022/03/16 04:10:03;;;;;;;;;;;10.20;99.90;;;;;;4877576;29;20314;-91
2022/03/16 04:12:30;;;;;;;;;;;10.20;99.90;;;;;;4861236;29;19939;-88
2022/03/16 04:14:58;;;;;;;;;;;10.20;99.90;;;;;;4878812;29;19935;-89
2022/03/16 04:17:26;;;;;;;;;;;10.20;99.90;;;;;;4878336;29;19928;-89
2022/03/16 04:19:54;;;;;;;;;;;10.20;99.90;;;;;;4862578;29;19928;-88
2022/03/16 04:22:21;;;;;;;;;;;10.20;99.90;;;;;;4882281;29;19928;-88
2022/03/16 04:24:49;;;;;;;;;;;10.20;99.90;;;;;;4882373;29;20484;-89
2022/03/16 04:27:16;;;;;;;;;;;10.20;99.90;;;;;;4880450;29;19928;-89
2022/03/16 04:29:44;;;;;;;;;;;10.20;99.90;;;;;;4882764;29;19935;-87
2022/03/16 04:32:11;;;;;;;;;;;10.20;99.90;;;;;;4881934;29;19938;-88
2022/03/16 04:34:39;;;;;;;;;;;10.20;99.90;;;;;;4881100;29;19935;-90
2022/03/16 04:37:06;;;;;;;;;;;10.60;99.90;;;;;;4884749;29;19932;-88
2022/03/16 04:39:36;;;;;;;;;;;10.20;99.90;;;;;;4885649;29;19942;-89
2022/03/16 04:42:04;;;;;;;;;;;10.20;99.90;;;;;;4854294;29;19932;-88
2022/03/16 04:44:32;;;;;;;;;;;10.20;99.90;;;;;;4886775;29;19927;-88
2022/03/16 04:47:01;;;;;;;;;;;10.00;99.90;;;;;;4886130;29;19935;-88
2022/03/16 04:49:28;;;;;;;;;;;10.20;99.90;;;;;;4885792;29;20299;-89
2022/03/16 04:51:56;;;;;;;;;;;10.20;99.90;;;;;;4885762;29;19943;-89
2022/03/16 04:54:23;;;;;;;;;;;10.10;99.90;;;;;;4885719;29;19932;-88
2022/03/16 04:56:52;;;;;;;;;;;10.20;99.90;;;;;;4881104;29;19935;-88
2022/03/16 04:59:19;;;;;;;;;;;10.10;99.90;;;;;;4850382;29;19935;-87
2022/03/16 05:01:47;;;;;;;;;;;10.10;99.90;;;;;;4882005;29;19931;-88
2022/03/16 05:04:14;;;;;;;;;;;10.10;99.90;;;;;;4865242;29;19928;-88
2022/03/16 05:06:42;;;;;;;;;;;10.10;99.90;;;;;;4880382;29;19928;-87
2022/03/16 05:09:09;;;;;;;;;;;10.10;99.90;;;;;;4881604;29;19935;-87
2022/03/16 05:11:40;;;;;;;;;;;10.10;99.90;;;;;;4881544;29;19934;-87
2022/03/16 05:14:09;;;;;;;;;;;10.10;99.90;;;;;;4864959;29;20379;-86
2022/03/16 05:16:37;;;;;;;;;;;10.10;99.90;;;;;;4882207;29;19928;-88
2022/03/16 05:19:05;;;;;;;;;;;10.10;99.90;;;;;;4884388;29;19928;-87
2022/03/16 05:21:32;;;;;;;;;;;10.10;99.90;;;;;;4893870;29;19951;-88
2022/03/16 05:24:00;;;;;;;;;;;10.10;99.90;;;;;;4898323;29;19932;-87
2022/03/16 05:26:27;;;;;;;;;;;10.10;99.90;;;;;;4882075;29;19922;-89
2022/03/16 05:28:57;;;;;;;;;;;10.10;99.90;;;;;;4898003;29;19927;-87
2022/03/16 05:31:25;;;;;;;;;;;10.10;99.90;;;;;;4893404;29;19936;-87
2022/03/16 05:33:58;;;;;;;;;;;10.10;99.90;;;;;;4876179;29;19934;-87
2022/03/16 05:36:26;;;;;;;;;;;10.10;99.90;;;;;;4874048;29;19932;-87
2022/03/16 05:38:54;;;;;;;;;;;10.10;99.90;;;;;;4876302;29;19931;-88
2022/03/16 05:41:21;;;;;;;;;;;10.10;99.90;;;;;;4886755;29;19928;-88
2022/03/16 05:43:50;;;;;;;;;;;10.10;99.90;;;;;;4882725;29;19927;-88
2022/03/16 05:46:17;;;;;;;;;;;10.00;99.90;;;;;;4863028;29;19928;-86
2022/03/16 05:48:45;;;;;;;;;;;10.10;99.90;;;;;;4867599;29;19943;-87
2022/03/16 05:51:12;;;;;;;;;;;10.00;99.90;;;;;;4881349;29;19932;-89
2022/03/16 05:53:40;;;;;;;;;;;10.10;99.90;;;;;;4884142;29;19939;-88
2022/03/16 05:56:07;;;;;;;;;;;10.00;99.90;;;;;;4891405;29;19927;-89
2022/03/16 05:58:35;;;;;;;;;;;10.10;99.90;;;;;;4888387;29;19939;-87
2022/03/16 06:01:03;;;;;;;;;;;10.10;99.90;;;;;;4888891;29;19934;-87
2022/03/16 06:03:31;;;;;;;;;;;10.10;99.90;;;;;;4852072;29;19950;-87
2022/03/16 06:05:59;;;;;;;;;;;9.70;99.90;;;;;;4882170;29;19959;-88
2022/03/16 06:08:26;;;;;;;;;;;10.00;99.90;;;;;;4880994;29;19938;-88
2022/03/16 06:10:54;;;;;;;;;;;10.00;99.90;;;;;;4869061;29;20281;-88
2022/03/16 06:13:29;;;;;;;;;;;10.00;99.90;;;;;;4889675;29;19927;-89
2022/03/16 06:15:57;;;;;;;;;;;10.10;99.90;;;;;;4881611;29;19943;-88
2022/03/16 06:18:25;;;;;;;;;;;10.00;99.90;;;;;;4883177;29;19932;-87
2022/03/16 06:20:54;;;;;;;;;;;10.00;99.90;;;;;;4883568;29;19935;-87
2022/03/16 06:23:21;;;;;;;;;;;10.10;99.90;;;;;;4875748;29;20295;-89
2022/03/16 06:25:49;;;;;;;;;;;10.10;99.90;;;;;;4887814;29;19935;-88
2022/03/16 06:28:16;;;;;;;;;;;10.10;99.90;;;;;;4880100;29;19932;-88
2022/03/16 06:30:44;;;;;;;;;;;10.10;99.90;;;;;;4882665;29;19935;-86
2022/03/16 06:33:14;;;;;;;;;;;10.10;99.90;;;;;;4882898;29;19932;-88
2022/03/16 06:35:43;;;;;;;;;;;10.00;99.90;;;;;;4876700;29;19928;-87
2022/03/16 06:38:11;;;;;;;;;;;10.00;99.90;;;;;;4866661;29;19935;-88
2022/03/16 06:40:39;;;;;;;;;;;10.10;99.90;;;;;;4883316;29;19932;-88
2022/03/16 06:43:07;;;;;;;;;;;10.00;99.90;;;;;;4883785;29;20626;-87
2022/03/16 06:45:35;;;;;;;;;;;10.00;99.90;;;;;;4887796;29;19943;-88
2022/03/16 06:48:04;;;;;;;;;;;10.00;99.90;;;;;;4885035;29;19928;-86
2022/03/16 06:50:34;;;;;;;;;;;10.00;99.90;;;;;;4889092;29;19924;-87
2022/03/16 06:53:03;;;;;;;;;;;11.00;99.90;;;;;;4869418;29;19928;-86
2022/03/16 06:55:36;;;;;;;;;;;10.00;99.90;;;;;;4874163;29;20005;-87
2022/03/16 06:58:04;;;;;;;;;;;10.00;99.90;;;;;;4887950;29;19935;-86
2022/03/16 07:00:33;;;;;;;;;;;10.00;99.90;;;;;;4876671;29;19935;-87
2022/03/16 07:03:08;;;;;;;;;;;10.00;99.90;;;;;;4870829;29;19928;-89
2022/03/16 07:05:37;;;;;;;;;;;10.00;99.90;;;;;;4855832;29;19934;-88
2022/03/16 07:08:07;;;;;;;;;;;10.00;99.90;;;;;;4869805;29;20321;-89
2022/03/16 07:10:37;;;;;;;;;;;10.00;99.90;;;;;;4885148;29;19928;-87
2022/03/16 07:13:11;;;;;;;;;;;10.20;99.90;;;;;;4871370;29;19936;-89
2022/03/16 07:15:43;;;;;;;;;;;10.00;99.90;;;;;;4870708;29;19950;-88
2022/03/16 07:18:12;;;;;;;;;;;10.10;99.90;;;;;;4885238;29;19932;-88
2022/03/16 07:20:42;;;;;;;;;;;8.50;99.90;;;;;;4882463;29;19939;-87
2022/03/16 07:23:16;;;;;;;;;;;10.10;99.90;;;;;;4867349;29;19928;-86
2022/03/16 07:25:46;;;;;;;;;;;10.10;99.90;;;;;;4867172;29;20273;-87
2022/03/16 07:28:14;;;;;;;;;;;10.20;99.90;;;;;;4883648;29;20399;-91
2022/03/16 07:30:47;;;;;;;;;;;10.20;99.90;;;;;;4869035;29;19936;-88
2022/03/16 07:33:19;;;;;;;;;;;10.20;99.90;;;;;;4864619;29;19959;-87
2022/03/16 07:35:49;;;;;;;;;;;10.20;99.90;;;;;;4887262;29;20490;-91
2022/03/16 07:38:17;;;;;;;;;;;10.20;99.90;;;;;;4871765;29;19947;-88
2022/03/16 07:40:45;;;;;;;;;;;10.30;99.90;;;;;;4863519;29;19939;-87
2022/03/16 07:43:15;;;;;;;;;;;10.30;99.90;;;;;;4882369;29;19928;-88
2022/03/16 07:45:45;;;;;;;;;;;10.30;99.90;;;;;;4876887;29;19935;-88
2022/03/16 07:48:16;;;;;;;;;;;10.30;99.90;;;;;;4870379;29;19928;-88
2022/03/16 07:50:45;;;;;;;;;;;10.40;99.90;;;;;;4866625;29;19928;-88
2022/03/16 07:53:13;;;;;;;;;;;10.60;99.90;;;;;;4866030;29;19944;-88
2022/03/16 07:55:40;;;;;;;;;;;10.40;99.90;;;;;;4865051;29;19932;-87
2022/03/16 07:58:08;;;;;;;;;;;10.50;99.90;;;;;;4866239;29;19938;-88
2022/03/16 08:00:36;;;;;;;;;;;10.50;99.90;;;;;;4861511;29;20273;-88
2022/03/16 08:03:03;;;;;;;;;;;10.50;99.90;;;;;;4881100;29;19927;-87
2022/03/16 08:05:31;;;;;;;;;;;10.50;99.90;;;;;;4881350;29;19927;-87
2022/03/16 08:07:59;;;;;;;;;;;11.40;99.90;;;;;;4880316;29;19934;-88
2022/03/16 08:10:29;;;;;;;;;;;10.60;99.90;;;;;;4875367;29;20299;-87
2022/03/16 08:13:02;;;;;;;;;;;10.60;99.90;;;;;;4861877;29;19932;-87
2022/03/16 08:15:30;;;;;;;;;;;10.30;99.90;;;;;;4846681;29;20304;-88
2022/03/16 08:17:57;;;;;;;;;;;9.80;99.90;;;;;;4873935;29;20005;-92
2022/03/16 08:20:25;;;;;;;;;;;10.60;99.90;;;;;;4883740;29;20392;-88
2022/03/16 08:22:56;;;;;;;;;;;9.40;99.90;;;;;;4867801;29;20542;-87
2022/03/16 08:25:44;;;;;;;;;;;10.70;99.90;;;;;;4880877;29;19943;-89
2022/03/16 08:28:11;;;;;;;;;;;10.70;99.90;;;;;;4860615;29;19928;-88
2022/03/16 08:30:39;;;;;;;;;;;10.80;99.90;;;;;;4874918;29;19950;-88
2022/03/16 08:33:07;;;;;;;;;;;10.80;99.90;;;;;;4874869;29;19932;-88
2022/03/16 08:35:35;;;;;;;;;;;10.80;99.90;;;;;;4843109;29;19931;-88
2022/03/16 08:38:03;;;;;;;;;;;10.90;99.90;;;;;;4875325;29;19934;-87
2022/03/16 08:40:30;;;;;;;;;;;10.70;99.90;;;;;;4859246;29;20489;-85
2022/03/16 08:42:58;;;;;;;;;;;10.90;99.90;;;;;;4873960;29;20633;-88
2022/03/16 08:45:27;;;;;;;;;;;10.90;99.90;;;;;;4868425;29;19955;-88
2022/03/16 08:47:54;;;;;;;;;;;10.90;99.90;;;;;;4854444;29;19928;-88
2022/03/16 08:50:22;;;;;;;;;;;11.00;99.90;;;;;;4873359;29;19935;-87
2022/03/16 08:52:50;;;;;;;;;;;11.00;99.90;;;;;;4874979;29;19935;-89
2022/03/16 08:55:17;;;;;;;;;;;11.00;99.90;;;;;;4872806;29;19942;-89
2022/03/16 08:57:45;;;;;;;;;;;11.00;99.90;;;;;;4871014;29;19936;-89
2022/03/16 09:00:15;;;;;;;;;;;11.00;99.90;;;;;;4868790;29;19939;-87
2022/03/16 09:02:43;;;;;;;;;;;11.80;99.90;;;;;;4859921;29;20307;-88
2022/03/16 09:05:14;;;;;;;;;;;11.20;99.90;;;;;;4873418;29;20094;-87
2022/03/16 09:07:41;;;;;;;;;;;11.00;99.90;;;;;;4859042;29;19927;-88
2022/03/16 09:10:09;;;;;;;;;;;11.30;99.90;;;;;;4857037;29;19943;-86
2022/03/16 09:12:37;;;;;;;;;;;11.00;99.90;;;;;;4874114;29;19928;-88
2022/03/16 09:15:05;;;;;;;;;;;10.80;99.90;;;;;;4858297;29;19928;-90
2022/03/16 09:17:33;;;;;;;;;;;11.00;99.90;;;;;;4862164;29;19939;-89
2022/03/16 09:20:02;;;;;;;;;;;11.10;99.90;;;;;;4861836;29;19931;-87
2022/03/16 09:22:30;;;;;;;;;;;11.10;99.90;;;;;;4844826;29;19928;-89
2022/03/16 09:24:58;;;;;;;;;;;11.00;99.90;;;;;;4874192;29;19931;-87
2022/03/16 09:27:29;;;;;;;;;;;11.20;99.90;;;;;;4858219;29;20929;-87
2022/03/16 09:29:58;;;;;;;;;;;11.20;99.90;;;;;;4878330;29;19932;-88
2022/03/16 09:32:26;;;;;;;;;;;11.20;99.90;;;;;;4854307;29;19915;-88
2022/03/16 09:34:55;;;;;;;;;;;11.20;99.90;;;;;;4893918;29;19920;-89
2022/03/16 09:37:22;;;;;;;;;;;11.20;99.90;;;;;;4879478;29;20572;-89
2022/03/16 09:39:51;;;;;;;;;;;10.70;99.90;;;;;;4860711;29;19928;-88
2022/03/16 09:42:20;;;;;;;;;;;11.20;99.90;;;;;;4861947;29;19935;-88
2022/03/16 09:44:50;;;;;;;;;;;11.20;99.90;;;;;;4878762;29;19935;-87
2022/03/16 09:47:19;;;;;;;;;;;11.30;99.90;;;;;;4875958;29;19939;-88
2022/03/16 09:49:47;;;;;;;;;;;11.30;99.90;;;;;;4875370;29;19932;-88
2022/03/16 09:52:15;;;;;;;;;;;11.40;99.90;;;;;;4860962;29;19935;-89
2022/03/16 09:54:43;;;;;;;;;;;11.40;99.90;;;;;;4860237;29;19935;-88
2022/03/16 09:57:10;;;;;;;;;;;11.40;99.90;;;;;;4876883;29;19928;-88
2022/03/16 09:59:38;;;;;;;;;;;11.40;99.90;;;;;;4877781;29;19958;-87
2022/03/16 10:02:12;;;;;;;;;;;11.40;99.90;;;;;;4877937;29;19932;-88
2022/03/16 10:04:41;;;;;;;;;;;11.20;99.90;;;;;;4845801;29;19936;-89
2022/03/16 10:07:09;;;;;;;;;;;11.30;99.90;;;;;;4861051;29;20379;-88
2022/03/16 10:15:13;;;;;;;;;;;11.40;99.90;;;;;;4863692;29;19932;-89
2022/03/16 10:17:43;;;;;;;;;;;11.40;99.90;;;;;;4877130;29;19943;-89
2022/03/16 10:20:17;;;;;;;;;;;11.40;99.90;;;;;;4883838;29;20099;-87
2022/03/16 10:22:56;;;;;;;;;;;11.50;99.90;;;;;;4866415;29;19936;-88
2022/03/16 10:25:25;;;;;;;;;;;11.50;99.90;;;;;;4881306;29;19934;-89
2022/03/16 10:28:08;;;;;;;;;;;11.50;99.90;;;;;;4850383;29;19928;-89
2022/03/16 10:30:47;;;;;;;;;;;11.50;99.90;;;;;;4866997;29;19939;-89
2022/03/16 10:33:16;;;;;;;;;;;11.50;99.90;;;;;;4880777;29;19927;-87
2022/03/16 10:35:56;;;;;;;;;;;11.50;99.90;;;;;;4880748;29;19936;-88
2022/03/16 10:38:24;;;;;;;;;;;10.50;99.90;;;;;;4879721;29;19932;-89
2022/03/16 10:40:54;;;;;;;;;;;11.50;99.90;;;;;;4850061;29;20375;-88
2022/03/16 10:46:34;;;;;;;;;;;11.40;99.90;;;;;;4864351;29;19931;-89
2022/03/16 10:49:04;;;;;;;;;;;11.50;99.90;;;;;;4848686;29;20122;-89
2022/03/16 10:51:32;;;;;;;;;;;11.50;99.90;;;;;;4887339;29;19935;-90
2022/03/16 10:54:18;;;;;;;;;;;11.60;99.90;;;;;;4874243;29;19928;-89
2022/03/16 10:56:46;;;;;;;;;;;11.60;99.90;;;;;;4864882;29;19932;-90
2022/03/16 10:59:14;;;;;;;;;;;11.60;99.90;;;;;;4877983;29;19962;-90
2022/03/16 11:01:42;;;;;;;;;;;11.70;99.90;;;;;;4882178;29;19935;-90
2022/03/16 11:04:13;;;;;;;;;;;11.70;99.90;;;;;;4881616;29;20395;-89
2022/03/16 11:06:42;;;;;;;;;;;11.70;99.90;;;;;;4881209;29;19932;-88
2022/03/16 11:09:11;;;;;;;;;;;11.70;99.90;;;;;;4873770;29;19935;-88
2022/03/16 11:14:33;;;;;;;;;;;11.80;99.90;;;;;;4855421;29;20453;-87
2022/03/16 11:17:04;;;;;;;;;;;11.80;99.90;;;;;;4862948;29;19951;-89
2022/03/16 11:19:33;;;;;;;;;;;11.80;99.90;;;;;;4879294;29;19932;-87
2022/03/16 11:22:13;;;;;;;;;;;11.80;99.90;;;;;;4862987;29;19928;-89
2022/03/16 11:24:47;;;;;;;;;;;11.90;99.90;;;;;;4864750;29;19958;-88
2022/03/16 11:27:15;;;;;;;;;;;12.00;99.90;;;;;;4847124;29;19936;-90
2022/03/16 11:29:52;;;;;;;;;;;11.60;99.90;;;;;;4873380;29;19954;-89
2022/03/16 11:32:20;;;;;;;;;;;12.10;99.90;;;;;;4842685;29;19928;-89
2022/03/16 11:34:56;;;;;;;;;;;12.10;99.90;;;;;;4878295;29;19931;-89
2022/03/16 11:37:34;;;;;;;;;;;12.20;99.90;;;;;;4846327;29;19927;-91
2022/03/16 11:40:11;;;;;;;;;;;12.30;99.90;;;;;;4863685;29;19928;-89
2022/03/16 11:43:05;;;;;;;;;;;12.30;99.90;;;;;;4874488;29;19935;-89
2022/03/16 11:45:43;;;;;;;;;;;12.30;99.90;;;;;;4860005;29;19942;-89
2022/03/16 11:48:26;;;;;;;;;;;12.00;99.90;;;;;;4879881;29;19935;-89
2022/03/16 11:51:09;;;;;;;;;;;12.40;99.90;;;;;;4865053;29;19964;-88
2022/03/16 11:53:46;;;;;;;;;;;12.40;99.90;;;;;;4853352;29;19939;-88
2022/03/16 11:56:20;;;;;;;;;;;12.30;99.90;;;;;;4876182;29;19931;-89
2022/03/16 11:58:48;;;;;;;;;;;12.40;99.90;;;;;;4861938;29;19934;-88
2022/03/16 12:01:29;;;;;;;;;;;11.20;99.90;;;;;;4879072;29;19926;-89
2022/03/16 12:04:15;;;;;;;;;;;12.60;99.90;;;;;;4879760;29;19932;-89
2022/03/16 12:07:03;;;;;;;;;;;12.70;99.90;;;;;;4864650;29;20299;-89
2022/03/16 12:09:39;;;;;;;;;;;12.50;99.90;;;;;;4877384;29;19931;-89
2022/03/16 12:15:00;;;;;;;;;;;12.60;99.90;;;;;;4887986;29;19932;-89
2022/03/16 12:17:28;;;;;;;;;;;12.60;99.90;;;;;;4862981;29;19916;-90
2022/03/16 12:20:11;;;;;;;;;;;12.70;99.90;;;;;;4872552;29;19938;-89
2022/03/16 12:22:46;;;;;;;;;;;12.80;99.90;;;;;;4876736;29;20276;-89
2022/03/16 12:25:29;;;;;;;;;;;12.80;99.90;;;;;;4872234;29;19935;-89
2022/03/16 12:30:59;;;;;;;;;;;12.90;99.90;;;;;;4890068;29;20393;-88
2022/03/16 12:33:29;;;;;;;;;;;12.80;99.90;;;;;;4865206;29;19939;-89
2022/03/16 12:36:13;;;;;;;;;;;12.90;99.90;;;;;;4844382;29;19934;-90
2022/03/16 12:39:29;;;;;;;;;;;12.80;99.90;;;;;;4839375;29;19928;-88
2022/03/16 12:44:55;;;;;;;;;;;12.80;99.90;;;;;;4876419;29;19928;-88
2022/03/16 12:47:28;;;;;;;;;;;12.80;99.90;;;;;;4859544;29;19944;-89
2022/03/16 12:49:56;;;;;;;;;;;12.80;99.90;;;;;;4878003;29;20311;-88
2022/03/16 12:52:24;;;;;;;;;;;12.90;99.90;;;;;;4878774;29;20271;-89
2022/03/16 12:54:53;;;;;;;;;;;12.80;99.90;;;;;;4861440;29;19935;-87
2022/03/16 12:57:21;;;;;;;;;;;12.70;99.90;;;;;;4875024;29;20456;-87
2022/03/16 12:59:53;;;;;;;;;;;12.70;99.90;;;;;;4860367;29;19935;-90
2022/03/16 13:02:23;;;;;;;;;;;12.70;99.90;;;;;;4875504;29;19932;-89
2022/03/16 13:04:56;;;;;;;;;;;12.60;99.90;;;;;;4859604;29;19932;-88
2022/03/16 13:07:24;;;;;;;;;;;12.60;99.90;;;;;;4846237;29;20379;-87
2022/03/16 13:09:52;;;;;;;;;;;12.60;99.90;;;;;;4874608;29;20130;-86
2022/03/16 13:12:24;;;;;;;;;;;12.60;99.90;;;;;;4875026;29;19931;-86
2022/03/16 13:14:54;;;;;;;;;;;12.70;99.90;;;;;;4875547;29;19943;-85
2022/03/16 13:17:23;;;;;;;;;;;12.80;99.90;;;;;;4858780;29;19947;-84
2022/03/16 13:19:55;;;;;;;;;;;12.80;99.90;;;;;;4867740;29;19932;-85
2022/03/16 13:22:22;;;;;;;;;;;12.80;99.90;;;;;;4871107;29;19939;-87
2022/03/16 13:24:51;;;;;;;;;;;12.80;99.90;;;;;;4876608;29;19932;-85
2022/03/16 13:27:38;;;;;;;;;;;12.80;99.90;;;;;;4859246;29;20300;-85
2022/03/16 13:30:19;;;;;;;;;;;12.90;99.90;;;;;;4857708;29;19935;-86
2022/03/16 13:32:51;;;;;;;;;;;13.00;99.90;;;;;;4874649;29;20007;-85
2022/03/16 13:35:23;;;;;;;;;;;13.00;99.90;;;;;;4875724;29;19932;-86
2022/03/16 13:38:01;;;;;;;;;;;13.20;99.90;;;;;;4869558;29;20296;-86
2022/03/16 13:40:31;;;;;;;;;;;12.80;99.90;;;;;;4862228;29;19928;-86
2022/03/16 13:43:15;;;;;;;;;;;13.00;99.90;;;;;;4869718;29;20325;-85
2022/03/16 13:45:56;;;;;;;;;;;13.20;99.90;;;;;;4871527;29;19930;-83
2022/03/16 13:48:36;;;;;;;;;;;13.20;99.90;;;;;;4860234;29;20238;-85
2022/03/16 13:51:05;;;;;;;;;;;13.20;99.90;;;;;;4856797;29;19928;-84
2022/03/16 13:53:40;;;;;;;;;;;13.10;99.90;;;;;;4882520;29;19956;-84
2022/03/16 13:56:13;;;;;;;;;;;13.00;99.90;;;;;;4863442;29;19949;-85
2022/03/16 13:58:41;;;;;;;;;;;13.00;99.90;;;;;;4861088;29;20307;-85
2022/03/16 14:01:18;;;;;;;;;;;13.50;99.90;;;;;;4841628;29;19932;-86
2022/03/16 14:03:46;;;;;;;;;;;13.00;99.90;;;;;;4874989;29;19932;-85
2022/03/16 14:06:16;;;;;;;;;;;12.90;99.90;;;;;;4874787;29;20391;-87
2022/03/16 14:08:50;;;;;;;;;;;12.90;99.90;;;;;;4880909;29;19939;-84
2022/03/16 14:11:30;;;;;;;;;;;12.90;99.90;;;;;;4873013;29;19932;-85
2022/03/16 14:13:58;;;;;;;;;;;12.80;99.90;;;;;;4878439;29;19936;-87
2022/03/16 14:16:31;;;;;;;;;;;12.80;99.90;;;;;;4879535;29;19931;-88
2022/03/16 14:18:59;;;;;;;;;;;12.80;99.90;;;;;;4851136;29;19928;-85
2022/03/16 14:21:27;;;;;;;;;;;12.70;99.90;;;;;;4865260;29;20316;-85
2022/03/16 14:23:54;;;;;;;;;;;12.70;99.90;;;;;;4883471;29;20483;-86
2022/03/16 14:26:24;;;;;;;;;;;12.70;99.90;;;;;;4881889;29;19935;-86
2022/03/16 14:28:52;;;;;;;;;;;12.60;99.90;;;;;;4883065;29;20041;-88
2022/03/16 14:31:21;;;;;;;;;;;12.70;99.90;;;;;;4882480;29;19928;-87
2022/03/16 14:33:49;;;;;;;;;;;12.70;99.90;;;;;;4882495;29;19928;-89
2022/03/16 14:36:32;;;;;;;;;;;12.70;99.90;;;;;;4858625;29;20508;-88
2022/03/16 14:39:25;;;;;;;;;;;12.70;99.90;;;;;;4880774;29;19935;-88
2022/03/16 14:41:55;;;;;;;;;;;12.80;99.90;;;;;;4883467;29;19955;-88
2022/03/16 14:44:23;;;;;;;;;;;12.70;99.90;;;;;;4865557;29;19943;-87
2022/03/16 14:46:53;;;;;;;;;;;12.70;99.90;;;;;;4883766;29;19928;-89
2022/03/16 14:49:21;;;;;;;;;;;12.60;99.90;;;;;;4851271;29;19928;-86
2022/03/16 14:51:48;;;;;;;;;;;12.60;99.90;;;;;;4880272;29;20304;-88
2022/03/16 14:54:16;;;;;;;;;;;12.60;99.90;;;;;;4885175;29;19927;-89
2022/03/16 14:56:43;;;;;;;;;;;12.50;99.90;;;;;;4886182;29;19928;-88